createdAt,value
2018-06-30T00:00:07.996Z,98419.91
2018-06-30T00:02:36.857Z,98418.27
2018-06-30T00:05:05.172Z,98414.80
2018-06-30T00:07:33.511Z,98417.92
2018-06-30T00:10:01.660Z,98424.56
2018-06-30T00:12:30.202Z,98429.83
2018-06-30T00:14:58.529Z,98427.02
2018-06-30T00:17:26.918Z,98424.26
2018-06-30T00:19:55.437Z,98426.08
2018-06-30T00:22:23.774Z,98423.95
2018-06-30T00:24:52.046Z,98420.14
2018-06-30T00:27:25.809Z,98427.37
2018-06-30T00:29:54.129Z,98426.31
2018-06-30T00:32:22.460Z,98416.13
2018-06-30T00:34:50.823Z,98426.61
2018-06-30T00:37:18.853Z,98424.41
2018-06-30T00:39:47.230Z,98421.95
2018-06-30T00:42:15.514Z,98421.47
2018-06-30T00:44:43.697Z,98426.31
2018-06-30T00:47:11.958Z,98419.95
2018-06-30T00:49:40.373Z,98424.80
2018-06-30T00:52:08.922Z,98424.27
2018-06-30T00:54:37.350Z,98416.63
2018-06-30T00:57:05.916Z,98415.13
2018-06-30T00:59:34.354Z,98420.92
2018-06-30T01:02:02.833Z,98412.84
2018-06-30T01:04:31.242Z,98408.37
2018-06-30T01:06:59.473Z,98413.69
2018-06-30T01:09:27.870Z,98400.94
2018-06-30T01:11:56.380Z,98406.50
2018-06-30T01:14:24.731Z,98397.25
2018-06-30T01:16:53.033Z,98400.09
2018-06-30T01:19:21.412Z,98403.52
2018-06-30T01:21:49.755Z,98393.25
2018-06-30T01:24:18.019Z,98394.14
2018-06-30T01:26:46.306Z,98397.97
2018-06-30T01:29:14.454Z,98394.06
2018-06-30T01:31:42.797Z,98386.03
2018-06-30T01:34:11.106Z,98387.13
2018-06-30T01:36:39.505Z,98396.09
2018-06-30T01:39:09.157Z,98394.81
2018-06-30T01:41:37.599Z,98390.99
2018-06-30T01:44:05.984Z,98394.75
2018-06-30T01:46:33.954Z,98395.48
2018-06-30T01:49:02.322Z,98398.02
2018-06-30T01:51:30.589Z,98396.22
2018-06-30T01:53:59.006Z,98391.00
2018-06-30T01:56:27.237Z,98389.00
2018-06-30T01:58:55.521Z,98383.23
2018-06-30T02:01:23.692Z,98385.43
2018-06-30T02:03:52.074Z,98387.97
2018-06-30T02:06:20.406Z,98382.41
2018-06-30T02:08:48.830Z,98385.12
2018-06-30T02:11:17.093Z,98381.92
2018-06-30T02:13:45.414Z,98382.76
2018-06-30T02:16:13.744Z,98377.13
2018-06-30T02:18:42.039Z,98380.81
2018-06-30T02:21:10.313Z,98380.76
2018-06-30T02:23:38.473Z,98375.41
2018-06-30T02:26:06.910Z,98379.30
2018-06-30T02:28:35.125Z,98383.28
2018-06-30T02:31:03.409Z,98384.27
2018-06-30T02:33:31.530Z,98382.20
2018-06-30T02:35:59.872Z,98387.96
2018-06-30T02:38:28.030Z,98391.34
2018-06-30T02:40:55.941Z,98392.86
2018-06-30T02:43:24.279Z,98390.85
2018-06-30T02:45:52.570Z,98387.21
2018-06-30T02:48:20.845Z,98395.03
2018-06-30T02:50:49.107Z,98394.54
2018-06-30T02:53:17.269Z,98393.20
2018-06-30T02:55:45.649Z,98394.83
2018-06-30T02:58:13.881Z,98394.19
2018-06-30T03:00:42.359Z,98393.12
2018-06-30T03:03:10.679Z,98386.70
2018-06-30T03:05:38.952Z,98382.72
2018-06-30T03:08:07.469Z,98383.85
2018-06-30T03:10:35.705Z,98390.24
2018-06-30T03:13:04.189Z,98386.54
2018-06-30T03:15:32.501Z,98392.78
2018-06-30T03:18:00.837Z,98390.45
2018-06-30T03:20:29.117Z,98388.80
2018-06-30T03:22:57.546Z,98379.98
2018-06-30T03:25:25.978Z,98387.19
2018-06-30T03:27:54.153Z,98391.28
2018-06-30T03:30:22.434Z,98387.87
2018-06-30T03:32:50.802Z,98387.92
2018-06-30T03:35:18.881Z,98393.85
2018-06-30T03:37:47.353Z,98395.56
2018-06-30T03:40:15.506Z,98400.30
2018-06-30T03:42:43.682Z,98402.38
2018-06-30T03:45:12.214Z,98404.96
2018-06-30T03:47:40.566Z,98408.31
2018-06-30T03:50:08.935Z,98403.47
2018-06-30T03:52:37.245Z,98414.02
2018-06-30T03:55:05.890Z,98417.56
2018-06-30T03:57:34.128Z,98411.03
2018-06-30T04:00:02.517Z,98419.19
2018-06-30T04:02:30.833Z,98416.12
2018-06-30T04:04:59.103Z,98414.67
2018-06-30T04:07:27.511Z,98413.70
2018-06-30T04:09:55.845Z,98414.01
2018-06-30T04:12:24.138Z,98409.65
2018-06-30T04:14:52.422Z,98407.16
2018-06-30T04:17:20.781Z,98409.47
2018-06-30T04:19:49.066Z,98409.30
2018-06-30T04:22:18.187Z,98405.96
2018-06-30T04:24:46.625Z,98405.30
2018-06-30T04:27:15.013Z,98405.02
2018-06-30T04:29:43.114Z,98405.02
2018-06-30T04:32:11.557Z,98408.49
2018-06-30T04:34:39.833Z,98411.34
2018-06-30T04:37:07.821Z,98404.03
2018-06-30T04:39:36.177Z,98411.57
2018-06-30T04:42:04.811Z,98411.75
2018-06-30T04:44:33.140Z,98409.23
2018-06-30T04:47:01.425Z,98411.25
2018-06-30T04:49:29.797Z,98413.08
2018-06-30T04:51:58.178Z,98419.27
2018-06-30T04:54:26.444Z,98419.81
2018-06-30T04:56:54.782Z,98421.48
2018-06-30T04:59:23.202Z,98413.48
2018-06-30T05:01:51.634Z,98420.97
2018-06-30T05:04:20.431Z,98425.49
2018-06-30T05:06:48.754Z,98418.42
2018-06-30T05:09:17.030Z,98425.44
2018-06-30T05:11:45.297Z,98425.13
2018-06-30T05:14:13.473Z,98424.59
2018-06-30T05:16:41.845Z,98422.48
2018-06-30T05:19:10.028Z,98425.84
2018-06-30T05:21:38.493Z,98424.16
2018-06-30T05:24:06.681Z,98428.49
2018-06-30T05:26:34.954Z,98418.47
2018-06-30T05:29:03.221Z,98422.33
2018-06-30T05:31:31.610Z,98422.82
2018-06-30T05:33:59.879Z,98428.34
2018-06-30T05:36:28.254Z,98422.50
2018-06-30T05:38:56.741Z,98423.49
2018-06-30T05:41:24.958Z,98426.32
2018-06-30T05:43:53.385Z,98423.14
2018-06-30T05:46:21.777Z,98425.14
2018-06-30T05:48:50.052Z,98426.95
2018-06-30T05:51:18.209Z,98426.16
2018-06-30T05:53:46.385Z,98425.45
2018-06-30T05:56:14.661Z,98432.83
2018-06-30T06:01:17.194Z,98429.81
2018-06-30T06:03:45.649Z,98430.13
2018-06-30T06:06:14.029Z,98434.48
2018-06-30T06:08:42.396Z,98433.61
2018-06-30T06:11:10.988Z,98439.63
2018-06-30T06:13:39.356Z,98428.63
2018-06-30T06:16:07.636Z,98429.63
2018-06-30T06:18:35.908Z,98436.82
2018-06-30T06:21:04.352Z,98433.45
2018-06-30T06:23:32.790Z,98433.63
2018-06-30T06:26:01.278Z,98431.11
2018-06-30T06:28:29.656Z,98427.81
2018-06-30T06:30:57.700Z,98425.50
2018-06-30T06:33:25.968Z,98419.44
2018-06-30T06:35:54.356Z,98414.71
2018-06-30T06:38:22.940Z,98405.12
2018-06-30T06:40:51.316Z,98405.09
2018-06-30T06:43:19.713Z,98409.11
2018-06-30T06:45:48.172Z,98409.27
2018-06-30T06:48:16.548Z,98409.71
2018-06-30T06:50:44.432Z,98407.13
2018-06-30T06:53:12.381Z,98402.89
2018-06-30T06:55:40.337Z,98410.48
2018-06-30T06:58:08.625Z,98400.37
2018-06-30T07:00:37.007Z,98402.81
2018-06-30T07:03:05.428Z,98400.55
2018-06-30T07:05:33.861Z,98394.20
2018-06-30T07:08:01.781Z,98393.13
2018-06-30T07:10:29.714Z,98386.98
2018-06-30T07:12:57.647Z,98388.66
2018-06-30T07:15:25.604Z,98380.23
2018-06-30T07:17:53.565Z,98382.95
2018-06-30T07:20:21.578Z,98378.22
2018-06-30T07:22:49.504Z,98380.98
2018-06-30T07:25:17.912Z,98386.97
2018-06-30T07:27:46.188Z,98381.52
2018-06-30T07:30:14.168Z,98380.15
2018-06-30T07:32:42.144Z,98378.53
2018-06-30T07:35:10.179Z,98370.50
2018-06-30T07:37:38.201Z,98376.70
2018-06-30T07:40:06.131Z,98389.76
2018-06-30T07:42:34.292Z,98379.59
2018-06-30T07:45:02.217Z,98379.52
2018-06-30T07:47:30.188Z,98387.59
2018-06-30T07:49:58.184Z,98390.19
2018-06-30T07:52:26.093Z,98383.58
2018-06-30T07:54:54.080Z,98383.70
2018-06-30T07:57:22.021Z,98381.08
2018-06-30T07:59:49.956Z,98382.80
2018-06-30T08:02:17.948Z,98387.66
2018-06-30T08:04:45.864Z,98381.45
2018-06-30T08:07:13.833Z,98378.69
2018-06-30T08:09:41.800Z,98380.20
2018-06-30T08:12:09.726Z,98381.58
2018-06-30T08:14:37.656Z,98371.33
2018-06-30T08:17:05.614Z,98379.87
2018-06-30T08:19:33.549Z,98384.77
2018-06-30T08:22:01.536Z,98382.59
2018-06-30T08:24:29.516Z,98374.73
2018-06-30T08:26:57.553Z,98381.99
2018-06-30T08:29:25.532Z,98384.10
2018-06-30T08:31:53.479Z,98385.27
2018-06-30T08:34:21.454Z,98384.86
2018-06-30T08:36:49.356Z,98391.66
2018-06-30T08:39:17.776Z,98385.39
2018-06-30T08:41:46.050Z,98389.56
2018-06-30T08:44:14.535Z,98389.59
2018-06-30T08:46:42.802Z,98390.69
2018-06-30T08:49:11.193Z,98398.88
2018-06-30T08:51:39.580Z,98393.57
2018-06-30T08:54:08.037Z,98397.92
2018-06-30T08:56:36.526Z,98398.13
2018-06-30T08:59:05.107Z,98394.48
2018-06-30T09:01:33.688Z,98403.25
2018-06-30T09:04:01.852Z,98402.56
2018-06-30T09:06:30.144Z,98406.91
2018-06-30T09:08:58.517Z,98399.91
2018-06-30T09:11:26.896Z,98397.95
2018-06-30T09:13:55.372Z,98403.08
2018-06-30T09:16:23.644Z,98407.19
2018-06-30T09:18:51.921Z,98410.45
2018-06-30T09:21:20.180Z,98407.61
2018-06-30T09:23:48.472Z,98413.36
2018-06-30T09:26:16.749Z,98413.83
2018-06-30T09:28:45.121Z,98419.45
2018-06-30T09:31:13.506Z,98423.44
2018-06-30T09:33:41.880Z,98421.53
2018-06-30T09:36:10.158Z,98423.31
2018-06-30T09:38:38.640Z,98423.17
2018-06-30T09:41:06.808Z,98419.08
2018-06-30T09:43:35.087Z,98424.58
2018-06-30T09:46:03.677Z,98424.09
2018-06-30T09:48:32.045Z,98422.14
2018-06-30T09:51:00.456Z,98421.97
2018-06-30T09:53:28.791Z,98433.55
2018-06-30T09:55:56.976Z,98438.12
2018-06-30T09:58:25.343Z,98428.28
2018-06-30T10:00:59.292Z,98434.78
2018-06-30T10:03:27.612Z,98429.66
2018-06-30T10:05:55.907Z,98432.67
2018-06-30T10:08:24.184Z,98430.49
2018-06-30T10:10:52.459Z,98433.75
2018-06-30T10:13:20.842Z,98434.24
2018-06-30T10:15:49.343Z,98431.20
2018-06-30T10:18:17.687Z,98429.45
2018-06-30T10:20:45.969Z,98433.11
2018-06-30T10:23:14.243Z,98433.75
2018-06-30T10:25:42.623Z,98431.03
2018-06-30T10:28:11.469Z,98421.14
2018-06-30T10:30:40.552Z,98429.53
2018-06-30T10:33:09.553Z,98429.72
2018-06-30T10:35:38.232Z,98433.27
2018-06-30T10:38:06.764Z,98434.45
2018-06-30T10:40:35.294Z,98432.64
2018-06-30T10:43:03.628Z,98436.73
2018-06-30T10:45:31.848Z,98435.94
2018-06-30T10:48:00.277Z,98435.87
2018-06-30T10:50:28.448Z,98429.99
2018-06-30T10:52:56.827Z,98438.61
2018-06-30T10:55:25.125Z,98436.50
2018-06-30T10:57:53.171Z,98436.86
2018-06-30T11:00:21.575Z,98429.45
2018-06-30T11:02:50.031Z,98436.53
2018-06-30T11:05:18.421Z,98432.81
2018-06-30T11:07:46.764Z,98430.06
2018-06-30T11:10:15.062Z,98430.91
2018-06-30T11:12:43.451Z,98419.42
2018-06-30T11:15:11.919Z,98418.09
2018-06-30T11:17:40.265Z,98422.75
2018-06-30T11:20:08.381Z,98423.52
2018-06-30T11:22:36.848Z,98432.08
2018-06-30T11:25:06.035Z,98421.97
2018-06-30T11:27:34.135Z,98417.92
2018-06-30T11:30:02.496Z,98417.89
2018-06-30T11:32:30.982Z,98420.06
2018-06-30T11:34:59.344Z,98425.33
2018-06-30T11:37:27.824Z,98423.34
2018-06-30T11:39:56.103Z,98418.92
2018-06-30T11:42:24.379Z,98410.53
2018-06-30T11:44:52.751Z,98413.95
2018-06-30T11:47:21.031Z,98409.12
2018-06-30T11:49:49.507Z,98405.20
2018-06-30T11:52:17.800Z,98401.94
2018-06-30T11:54:46.267Z,98412.92
2018-06-30T11:57:14.436Z,98396.41
2018-06-30T11:59:42.820Z,98397.99
2018-06-30T12:02:11.227Z,98389.93
2018-06-30T12:04:39.574Z,98395.30
2018-06-30T12:07:08.008Z,98394.72
2018-06-30T12:09:36.334Z,98394.60
2018-06-30T12:12:04.812Z,98386.70
2018-06-30T12:14:32.798Z,98385.72
2018-06-30T12:17:01.153Z,98395.66
2018-06-30T12:19:29.527Z,98383.36
2018-06-30T12:21:57.700Z,98389.52
2018-06-30T12:24:26.027Z,98393.19
2018-06-30T12:26:54.578Z,98391.11
2018-06-30T12:29:22.708Z,98397.73
2018-06-30T12:31:51.116Z,98393.23
2018-06-30T12:34:19.283Z,98385.37
2018-06-30T12:36:47.481Z,98375.94
2018-06-30T12:39:15.832Z,98375.39
2018-06-30T12:41:44.219Z,98374.52
2018-06-30T12:44:12.395Z,98381.00
2018-06-30T12:46:40.663Z,98379.20
2018-06-30T12:49:08.936Z,98368.33
2018-06-30T12:51:37.216Z,98378.64
2018-06-30T12:54:05.696Z,98377.07
2018-06-30T12:56:34.179Z,98377.64
2018-06-30T12:59:02.556Z,98380.27
2018-06-30T13:01:30.932Z,98382.09
2018-06-30T13:03:59.211Z,98384.61
2018-06-30T13:06:27.484Z,98380.50
2018-06-30T13:08:55.860Z,98382.63
2018-06-30T13:11:24.445Z,98393.89
2018-06-30T13:13:52.941Z,98388.89
2018-06-30T13:16:21.404Z,98384.19
2018-06-30T13:18:49.987Z,98386.16
2018-06-30T13:21:18.521Z,98378.50
2018-06-30T13:23:46.844Z,98372.63
2018-06-30T13:26:15.113Z,98368.38
2018-06-30T13:28:43.309Z,98375.55
2018-06-30T13:31:11.884Z,98371.58
2018-06-30T13:33:40.355Z,98367.37
2018-06-30T13:36:08.836Z,98358.89
2018-06-30T13:38:37.307Z,98363.89
2018-06-30T13:41:05.796Z,98372.30
2018-06-30T13:43:34.338Z,98376.59
2018-06-30T13:46:02.331Z,98382.52
2018-06-30T13:48:30.620Z,98388.63
2018-06-30T13:50:59.099Z,98386.16
2018-06-30T13:53:27.125Z,98391.95
2018-06-30T13:55:55.555Z,98382.84
2018-06-30T13:58:23.934Z,98389.78
2018-06-30T14:00:52.429Z,98394.16
2018-06-30T14:03:20.747Z,98395.80
2018-06-30T14:05:49.268Z,98391.53
2018-06-30T14:08:17.730Z,98393.20
2018-06-30T14:10:46.041Z,98402.52
2018-06-30T14:13:14.498Z,98391.54
2018-06-30T14:15:42.862Z,98399.92
2018-06-30T14:18:11.246Z,98402.16
2018-06-30T14:20:39.501Z,98402.98
2018-06-30T14:23:08.012Z,98402.34
2018-06-30T14:25:36.286Z,98403.59
2018-06-30T14:28:04.763Z,98414.61
2018-06-30T14:30:33.140Z,98417.27
2018-06-30T14:33:01.515Z,98417.77
2018-06-30T14:35:29.886Z,98416.29
2018-06-30T14:37:58.267Z,98420.08
2018-06-30T14:40:26.345Z,98422.36
2018-06-30T14:42:54.720Z,98427.45
2018-06-30T14:45:23.085Z,98419.80
2018-06-30T14:47:51.466Z,98425.37
2018-06-30T14:50:19.907Z,98425.08
2018-06-30T14:52:48.235Z,98419.88
2018-06-30T14:55:16.481Z,98429.84
2018-06-30T14:57:44.882Z,98427.67
2018-06-30T15:00:12.907Z,98429.13
2018-06-30T15:02:41.226Z,98430.14
2018-06-30T15:05:10.751Z,98418.45
2018-06-30T15:07:39.318Z,98417.59
2018-06-30T15:10:08.348Z,98417.27
2018-06-30T15:12:36.579Z,98418.33
2018-06-30T15:15:05.255Z,98419.27
2018-06-30T15:17:33.645Z,98422.05
2018-06-30T15:20:02.015Z,98424.77
2018-06-30T15:22:30.511Z,98431.20
2018-06-30T15:24:58.881Z,98433.02
2018-06-30T15:27:27.145Z,98437.49
2018-06-30T15:29:55.439Z,98437.69
2018-06-30T15:32:23.901Z,98442.75
2018-06-30T15:34:52.196Z,98446.47
2018-06-30T15:37:20.557Z,98446.91
2018-06-30T15:39:48.942Z,98451.38
2018-06-30T15:42:17.016Z,98452.52
2018-06-30T15:44:45.185Z,98455.09
2018-06-30T15:47:13.671Z,98464.34
2018-06-30T15:49:41.941Z,98461.22
2018-06-30T15:52:10.324Z,98462.27
2018-06-30T15:54:38.593Z,98459.46
2018-06-30T15:57:06.569Z,98464.42
2018-06-30T15:59:34.829Z,98463.41
2018-06-30T16:02:03.726Z,98467.95
2018-06-30T16:04:31.729Z,98467.17
2018-06-30T16:07:00.173Z,98474.19
2018-06-30T16:09:28.442Z,98479.58
2018-06-30T16:11:56.736Z,98480.09
2018-06-30T16:14:25.097Z,98483.00
2018-06-30T16:16:53.377Z,98483.29
2018-06-30T16:19:21.654Z,98487.12
2018-06-30T16:21:50.007Z,98491.55
2018-06-30T16:24:18.409Z,98490.20
2018-06-30T16:26:46.390Z,98498.73
2018-06-30T16:29:14.554Z,98494.91
2018-06-30T16:31:43.106Z,98490.66
2018-06-30T16:34:11.318Z,98493.63
2018-06-30T16:36:39.777Z,98500.88
2018-06-30T16:39:09.149Z,98502.77
2018-06-30T16:41:37.272Z,98500.36
2018-06-30T16:44:05.793Z,98500.07
2018-06-30T16:46:34.492Z,98507.21
2018-06-30T16:49:02.966Z,98504.34
2018-06-30T16:51:31.543Z,98510.86
2018-06-30T16:53:59.853Z,98516.26
2018-06-30T16:56:28.030Z,98519.97
2018-06-30T16:58:56.424Z,98525.84
2018-06-30T17:01:24.690Z,98529.09
2018-06-30T17:03:52.853Z,98537.67
2018-06-30T17:06:21.486Z,98540.08
2018-06-30T17:08:49.814Z,98546.14
2018-06-30T17:11:18.201Z,98547.42
2018-06-30T17:13:46.580Z,98572.52
2018-06-30T17:16:14.960Z,98567.14
2018-06-30T17:18:43.240Z,98571.34
2018-06-30T17:21:11.619Z,98559.23
2018-06-30T17:23:39.982Z,98573.98
2018-06-30T17:26:08.277Z,98587.05
2018-06-30T17:28:36.650Z,98582.61
2018-06-30T17:31:05.028Z,98585.26
2018-06-30T17:33:33.290Z,98607.63
2018-06-30T17:36:01.665Z,98638.36
2018-06-30T17:38:30.051Z,98634.59
2018-06-30T17:40:58.329Z,98639.66
2018-06-30T17:43:26.601Z,98652.71
2018-06-30T17:45:54.883Z,98655.64
2018-06-30T17:48:23.246Z,98663.69
2018-06-30T17:50:51.744Z,98655.89
2018-06-30T17:53:20.156Z,98655.65
2018-06-30T17:55:48.481Z,98654.67
2018-06-30T17:58:16.392Z,98661.44
2018-06-30T18:00:44.621Z,98655.52
2018-06-30T18:03:13.010Z,98652.53
2018-06-30T18:05:41.170Z,98655.20
2018-06-30T18:08:09.359Z,98652.92
2018-06-30T18:10:37.733Z,98655.59
2018-06-30T18:13:06.110Z,98652.52
2018-06-30T18:15:34.485Z,98646.80
2018-06-30T18:18:02.866Z,98653.99
2018-06-30T18:20:31.145Z,98657.66
2018-06-30T18:22:59.414Z,98657.13
2018-06-30T18:25:27.676Z,98663.41
2018-06-30T18:27:56.069Z,98669.51
2018-06-30T18:30:24.234Z,98664.90
2018-06-30T18:32:52.622Z,98667.16
2018-06-30T18:35:20.888Z,98669.91
2018-06-30T18:37:49.280Z,98670.05
2018-06-30T18:40:17.745Z,98677.19
2018-06-30T18:42:45.935Z,98683.92
2018-06-30T18:45:14.294Z,98697.05
2018-06-30T18:47:42.673Z,98694.23
2018-06-30T18:50:11.050Z,98694.45
2018-06-30T18:52:39.402Z,98703.19
2018-06-30T18:55:07.706Z,98706.50
2018-06-30T18:57:37.114Z,98719.86
2018-06-30T19:00:06.588Z,98727.52
2018-06-30T19:02:34.904Z,98727.81
2018-06-30T19:05:03.384Z,98735.31
2018-06-30T19:07:31.750Z,98734.96
2018-06-30T19:10:00.092Z,98733.52
2018-06-30T19:12:28.406Z,98739.38
2018-06-30T19:14:56.877Z,98754.45
2018-06-30T19:17:25.262Z,98759.63
2018-06-30T19:19:53.529Z,98771.16
2018-06-30T19:22:21.710Z,98779.45
2018-06-30T19:24:50.086Z,98790.32
2018-06-30T19:27:18.366Z,98795.34
2018-06-30T19:29:46.421Z,98791.59
2018-06-30T19:32:14.712Z,98799.31
2018-06-30T19:34:42.985Z,98804.91
2018-06-30T19:37:11.361Z,98806.09
2018-06-30T19:39:39.742Z,98805.52
2018-06-30T19:42:08.133Z,98809.70
2018-06-30T19:44:36.289Z,98817.05
2018-06-30T19:47:04.769Z,98822.57
2018-06-30T19:49:33.156Z,98822.95
2018-06-30T19:52:01.528Z,98832.33
2018-06-30T19:54:29.803Z,98834.42
2018-06-30T19:56:58.183Z,98840.86
2018-06-30T19:59:26.557Z,98845.17
2018-06-30T20:01:54.868Z,98838.69
2018-06-30T20:04:23.413Z,98845.03
2018-06-30T20:06:51.585Z,98848.88
2018-06-30T20:09:19.762Z,98839.14
2018-06-30T20:11:48.030Z,98848.55
2018-06-30T20:14:16.313Z,98858.95
2018-06-30T20:16:44.485Z,98848.54
2018-06-30T20:19:12.657Z,98853.06
2018-06-30T20:21:41.034Z,98859.25
2018-06-30T20:24:09.182Z,98862.27
2018-06-30T20:26:37.600Z,98862.80
2018-06-30T20:29:06.024Z,98855.22
2018-06-30T20:31:34.445Z,98858.09
2018-06-30T20:34:02.714Z,98867.30
2018-06-30T20:36:30.993Z,98867.98
2018-06-30T20:38:59.289Z,98870.52
2018-06-30T20:41:27.757Z,98870.84
2018-06-30T20:43:56.229Z,98877.38
2018-06-30T20:46:24.279Z,98876.69
2018-06-30T20:48:52.677Z,98879.05
2018-06-30T20:51:21.068Z,98870.16
2018-06-30T20:53:49.325Z,98879.53
2018-06-30T20:56:17.821Z,98877.67
2018-06-30T20:58:46.200Z,98882.21
2018-06-30T21:01:14.221Z,98877.84
2018-06-30T21:03:42.555Z,98875.67
2018-06-30T21:06:11.025Z,98875.34
2018-06-30T21:08:39.182Z,98871.66
2018-06-30T21:11:07.472Z,98878.53
2018-06-30T21:13:36.045Z,98869.00
2018-06-30T21:16:04.336Z,98880.37
2018-06-30T21:18:32.700Z,98880.72
2018-06-30T21:21:00.980Z,98879.85
2018-06-30T21:23:29.260Z,98877.12
2018-06-30T21:25:57.719Z,98877.30
2018-06-30T21:28:26.113Z,98879.03
2018-06-30T21:30:54.431Z,98878.69
2018-06-30T21:33:22.975Z,98886.88
2018-06-30T21:35:51.343Z,98887.55
2018-06-30T21:38:19.600Z,98890.22
2018-06-30T21:40:47.904Z,98892.16
2018-06-30T21:43:16.269Z,98894.66
2018-06-30T21:45:44.549Z,98894.49
2018-06-30T21:48:13.036Z,98890.30
2018-06-30T21:50:41.506Z,98894.98
2018-06-30T21:53:09.792Z,98891.32
2018-06-30T21:55:38.102Z,98880.41
2018-06-30T21:58:06.552Z,98890.94
2018-06-30T22:00:47.684Z,98882.91
2018-06-30T22:03:17.360Z,98884.60
2018-06-30T22:05:45.598Z,98885.86
2018-06-30T22:08:13.682Z,98888.92
2018-06-30T22:10:42.204Z,98889.28
2018-06-30T22:13:10.597Z,98882.91
2018-06-30T22:15:38.904Z,98883.94
2018-06-30T22:18:07.274Z,98890.63
2018-06-30T22:20:35.914Z,98894.66
2018-06-30T22:23:04.416Z,98897.69
2018-06-30T22:25:33.233Z,98901.53
2018-06-30T22:28:01.969Z,98896.20
2018-06-30T22:30:30.549Z,98899.87
2018-06-30T22:32:58.981Z,98898.70
2018-06-30T22:35:27.361Z,98904.88
2018-06-30T22:37:56.393Z,98905.54
2018-06-30T22:40:24.820Z,98903.77
2018-06-30T22:42:53.409Z,98909.14
2018-06-30T22:45:21.307Z,98906.79
2018-06-30T22:47:49.545Z,98910.99
2018-06-30T22:50:18.493Z,98909.84
2018-06-30T22:52:46.900Z,98910.17
2018-06-30T22:55:15.406Z,98904.98
2018-06-30T22:57:43.785Z,98902.13
2018-06-30T23:00:14.203Z,98901.63
2018-06-30T23:02:42.465Z,98908.48
2018-06-30T23:05:10.854Z,98913.53
2018-06-30T23:07:39.230Z,98908.83
2018-06-30T23:10:07.721Z,98904.63
2018-06-30T23:12:35.973Z,98902.63
2018-06-30T23:15:04.470Z,98904.83
2018-06-30T23:17:32.954Z,98906.48
2018-06-30T23:20:01.334Z,98908.48
2018-06-30T23:23:05.285Z,98915.20
2018-06-30T23:25:34.151Z,98909.17
2018-06-30T23:28:02.857Z,98910.85
2018-06-30T23:30:31.555Z,98909.31
2018-06-30T23:32:59.878Z,98914.54
2018-06-30T23:35:29.154Z,98917.05
2018-06-30T23:37:58.482Z,98918.87
2018-06-30T23:40:27.070Z,98924.56
2018-06-30T23:42:55.467Z,98923.91
2018-06-30T23:45:24.129Z,98929.27
2018-06-30T23:47:53.264Z,98936.29
2018-06-30T23:50:21.808Z,98931.25
2018-06-30T23:52:50.274Z,98932.42
2018-06-30T23:55:18.649Z,98940.45
2018-06-30T23:57:46.572Z,98944.49
